FW0693 Weather Reports


time (UTC)temp
C
wind
direction
speed
KPH
gust
KPH
rain 1hr
cm
rain 24hr
cm
rain mn
cm
humidity
%
barometer
mb
20190421080108 14 168 1.6 4.8 0.00 0.00 0.00 67 1020.8
20190421073049 11 170 0.0 3.2 0.00 0.00 0.00 77 1021.0
20190421071646 11 170 0.0 3.2 0.00 0.00 0.00 80 1021.1
20190421070042 9 146 1.6 3.2 0.00 0.00 0.00 83 1021.2
20190421064554 8 141 1.6 4.8 0.00 0.00 0.00 87 1021.2
20190421063134 7 130 0.0 3.2 0.00 0.00 0.00 90 1021.3
20190421061521 6 113 0.0 0.0 0.00 0.00 0.00 94 1021.4
20190421060129 6 65 0.0 0.0 0.00 0.00 0.00 95 1021.4
20190421054540 5 65 0.0 0.0 0.00 0.00 0.00 95 1021.5
20190421053233 4 65 0.0 0.0 0.00 0.00 0.00 96 1021.5
20190421050103 3 65 0.0 0.0 0.00 0.00 0.00 95 1021.6
20190421044621 3 65 0.0 0.0 0.00 0.00 0.00 95 1021.6
20190421043037 3 80 0.0 0.0 0.00 0.00 0.00 94 1021.7
20190421041527 4 80 0.0 0.0 0.00 0.00 0.00 94 1021.8
20190421040144 4 80 0.0 0.0 0.00 0.00 0.00 94 1021.9
20190421034554 4 80 0.0 0.0 0.00 0.00 0.00 94 1022.0
20190421033052 4 80 0.0 0.0 0.00 0.00 0.00 92 1022.1
20190421031645 5 80 0.0 0.0 0.00 0.00 0.00 92 1022.3
20190421030014 5 80 0.0 0.0 0.00 0.00 0.00 91 1022.4
20190421021608 6 40 0.0 1.6 0.00 0.00 0.00 92 1022.8
20190421020045 6 40 0.0 0.0 0.00 0.00 0.00 90 1022.9
20190421014555 6 40 0.0 1.6 0.00 0.00 0.00 89 1023.0
20190421013128 6 50 1.6 4.8 0.00 0.00 0.00 89 1023.1
20190421011558 7 71 0.0 1.6 0.00 0.00 0.00 87 1023.2
20190421010220 7 59 3.2 6.4 0.00 0.00 0.00 86 1023.2
20190421004627 7 35 4.8 6.4 0.00 0.00 0.00 85 1023.2
20190421001716 8 302 0.0 0.0 0.00 0.00 0.00 82 1023.5
20190421000053 8 302 0.0 0.0 0.00 0.00 0.00 79 1023.6
20190420233053 9 302 0.0 0.0 0.00 0.00 0.00 78 1023.9
20190420231528 10 302 0.0 0.0 0.00 0.00 0.00 74 1023.9
20190420230128 11 302 0.0 0.0 0.00 0.00 0.00 71 1023.9
20190420220049 11 31 1.6 3.2 0.00 0.00 0.00 70 1024.2
20190420214501 12 41 1.6 9.7 0.00 0.00 0.00 65 1024.2
20190420211617 15 52 8.0 14.5 0.00 0.00 0.00 55 1024.4
20190420210042 15 76 6.4 12.9 0.00 0.00 0.00 55 1024.5
20190420204502 15 67 6.4 12.9 0.00 0.00 0.00 54 1024.6
20190420203038 16 55 6.4 9.7 0.00 0.00 0.00 50 1024.5
20190420201525 17 53 4.8 9.7 0.00 0.00 0.00 49 1024.5
20190420194522 17 64 6.4 14.5 0.00 0.00 0.00 48 1024.5
20190420191543 17 60 3.2 6.4 0.00 0.00 0.00 47 1024.2
20190420190137 18 71 1.6 4.8 0.00 0.00 0.00 46 1024.2
20190420184512 19 57 1.6 8.0 0.00 0.00 0.00 43 1024.0
20190420183141 20 69 3.2 16.1 0.00 0.00 0.00 41 1024.0
20190420180054 20 14 8.0 19.3 0.00 0.00 0.00 39 1024.1
20190420174536 21 22 9.7 17.7 0.00 0.00 0.00 38 1024.0
20190420173110 21 45 6.4 24.1 0.00 0.00 0.00 37 1024.0
20190420171532 22 25 9.7 19.3 0.00 0.00 0.00 36 1024.1
20190420170033 22 360 4.8 20.9 0.00 0.00 0.00 38 1024.2
20190420164548 22 28 11.3 29.0 0.00 0.00 0.00 38 1024.3
20190420163033 22 5 9.7 22.5 0.00 0.00 0.00 37 1024.4
20190420161550 22 5 16.1 30.6 0.00 0.00 0.00 36 1024.5
20190420160043 23 5 17.7 25.7 0.00 0.00 0.00 36 1024.5
20190420154556 23 32 12.9 30.6 0.00 0.00 0.00 37 1024.6
20190420153050 23 22 19.3 30.6 0.00 0.00 0.00 36 1024.7
20190420151508 23 20 17.7 30.6 0.00 0.00 0.00 37 1024.8
20190420150133 23 18 16.1 30.6 0.00 0.00 0.00 38 1024.8
20190420143118 23 14 20.9 29.0 0.00 0.00 0.00 38 1025.0
20190420141530 23 20 17.7 29.0 0.00 0.00 0.00 39 1025.2
20190420140137 23 111 11.3 27.4 0.00 0.00 0.00 37 1025.2
20190420130109 23 55 14.5 29.0 0.00 0.00 0.00 34 1025.9
20190420124604 23 74 9.7 27.4 0.00 0.00 0.00 35 1026.0
20190420123019 24 5 11.3 20.9 0.00 0.00 0.00 33 1026.1
20190420120104 23 34 8.0 27.4 0.00 0.00 0.00 37 1026.3
20190420114504 23 44 9.7 17.7 0.00 0.00 0.00 34 1026.5
20190420113016 23 57 6.4 20.9 0.00 0.00 0.00 32 1026.6
20190420110035 23 73 11.3 22.5 0.00 0.00 0.00 36 1026.9
20190420100058 22 84 16.1 22.5 0.00 0.00 0.00 36 1027.2
20190420094551 22 98 9.7 17.7 0.00 0.00 0.00 40 1027.3
20190420093051 21 219 3.2 9.7 0.00 0.00 0.00 56 1027.4
20190420084553 17 287 3.2 4.8 0.00 0.00 0.00 61 1027.9